Time;durP1;ratioP1;P1;durP2;ratioP2;P2;SDS_P1;SDS_P2;PMS_P1;PMS_P2;Temp;Humidity;BMP_temperature;BMP_pressure;BME280_temperature;BME280_humidity;BME280_pressure;Samples;Min_cycle;Max_cycle;Signal;HPM_P1;HPM_P2
2023/02/06 00:01:43;;;;;;;8.70;6.43;;;-2.60;99.90;;;-141.84;77.32;18787.63;5030009;28;20235;-60
2023/02/06 00:04:12;;;;;;;8.67;6.20;;;-2.60;99.90;;;-141.84;76.76;18830.31;5030164;28;20633;-63
2023/02/06 00:06:40;;;;;;;8.17;6.17;;;-2.50;99.90;;;-141.84;76.47;18789.66;5030849;28;20292;-61
2023/02/06 00:09:09;;;;;;;8.20;5.93;;;-2.50;99.90;;;-141.84;76.94;18787.63;5030177;28;20244;-62
2023/02/06 00:11:37;;;;;;;9.07;6.80;;;-2.60;99.90;;;-141.84;77.45;18797.78;5033637;28;20230;-62
2023/02/06 00:14:07;;;;;;;11.10;7.67;;;-2.60;99.90;;;-141.84;77.53;18814.03;5033549;28;20226;-60
2023/02/06 00:16:35;;;;;;;8.80;6.20;;;-2.60;99.90;;;-141.84;77.20;18767.31;5033643;28;20236;-60
2023/02/06 00:19:04;;;;;;;10.47;7.20;;;-2.60;99.90;;;-141.84;77.72;18805.91;5033908;28;20560;-60
2023/02/06 00:21:32;;;;;;;11.70;7.07;;;-2.60;99.90;;;-141.84;77.73;18771.38;5034426;28;20204;-61
2023/02/06 00:24:02;;;;;;;10.57;6.67;;;-2.60;99.90;;;-141.84;77.60;18773.41;5033759;28;20724;-61
2023/02/06 00:26:31;;;;;;;9.47;7.03;;;-2.60;99.90;;;-141.84;77.30;18809.97;5033873;28;20226;-61
2023/02/06 00:28:59;;;;;;;10.10;7.17;;;-2.60;99.90;;;-141.84;77.26;18828.28;5033949;28;20232;-61
2023/02/06 00:31:29;;;;;;;10.37;6.63;;;-2.60;99.90;;;-141.84;77.44;18791.69;5033444;28;20241;-60
2023/02/06 00:33:57;;;;;;;10.47;7.30;;;-2.60;99.90;;;-141.84;76.77;18814.03;5034468;28;20201;-61
2023/02/06 00:36:25;;;;;;;10.13;6.90;;;-2.50;99.90;;;-141.84;76.77;18775.44;5034254;28;20221;-60
2023/02/06 00:38:53;;;;;;;9.30;7.00;;;-2.60;99.90;;;-141.84;76.81;18793.72;5033830;28;20229;-60
2023/02/06 00:41:22;;;;;;;10.50;7.00;;;-2.50;99.90;;;-141.84;77.16;18801.84;5033764;28;20226;-61
2023/02/06 00:43:50;;;;;;;8.63;6.77;;;-2.50;99.90;;;-141.84;77.18;18842.50;5033588;28;20249;-61
2023/02/06 00:46:18;;;;;;;9.57;6.83;;;-2.40;99.90;;;-141.84;76.84;18820.16;5033518;28;20237;-61
2023/02/06 00:48:47;;;;;;;10.07;7.57;;;-2.40;99.90;;;-141.84;76.02;18801.84;5033898;28;20259;-59
2023/02/06 00:51:16;;;;;;;9.57;7.00;;;-2.30;99.90;;;-141.84;75.51;18791.69;5033688;28;20233;-60
2023/02/06 00:53:44;;;;;;;10.50;7.73;;;-2.20;99.90;;;-141.84;75.84;18797.78;5032712;28;20233;-60
2023/02/06 00:56:12;;;;;;;10.93;7.93;;;-2.30;99.90;;;-141.84;76.03;18814.03;5032596;28;20226;-62
2023/02/06 00:58:43;;;;;;;12.07;8.40;;;-2.30;99.90;;;-141.84;75.63;18805.91;5032717;28;20224;-59
2023/02/06 01:01:11;;;;;;;10.57;7.70;;;-2.30;99.90;;;-141.84;75.68;18805.91;5032582;28;20243;-61
2023/02/06 01:03:39;;;;;;;8.57;7.10;;;-2.20;99.90;;;-141.84;76.14;18824.22;5033855;28;20209;-61
2023/02/06 01:06:09;;;;;;;11.70;8.83;;;-2.20;99.90;;;-141.84;75.99;18856.72;5033222;28;20590;-60
2023/02/06 01:08:37;;;;;;;10.93;7.63;;;-2.20;99.90;;;-141.84;74.89;18826.25;5033197;28;20233;-61
2023/02/06 01:11:11;;;;;;;9.97;7.70;;;-2.10;99.90;;;-141.84;73.91;18812.00;5032635;28;20237;-62
2023/02/06 01:13:39;;;;;;;11.50;8.50;;;-1.90;99.90;;;-141.84;74.30;18846.56;5033072;28;20234;-61
2023/02/06 01:16:09;;;;;;;9.73;7.80;;;-1.90;99.90;;;-141.84;74.83;18838.44;5032832;28;20245;-61
2023/02/06 01:18:37;;;;;;;11.37;7.20;;;-1.90;99.90;;;-141.84;75.38;18834.38;5033661;28;20209;-62
2023/02/06 01:21:10;;;;;;;9.77;7.00;;;-2.00;99.90;;;-141.84;75.41;18828.28;5032772;28;20248;-61
2023/02/06 01:23:39;;;;;;;11.27;7.77;;;-2.00;99.90;;;-141.84;75.33;18842.50;5033071;28;20226;-61
2023/02/06 01:26:09;;;;;;;9.93;6.80;;;-2.10;99.90;;;-141.84;75.58;18832.34;5032637;28;20283;-61
2023/02/06 01:28:38;;;;;;;9.77;7.50;;;-2.10;99.90;;;-141.84;75.46;18814.03;5032985;28;20233;-61
2023/02/06 01:31:11;;;;;;;11.00;7.50;;;-2.00;99.90;;;-141.84;75.95;18826.25;5032639;28;20224;-61
2023/02/06 01:33:40;;;;;;;12.07;7.73;;;-2.20;99.90;;;-141.84;76.51;18787.63;5032966;28;20739;-59
2023/02/06 01:36:12;;;;;;;12.97;7.87;;;-2.20;99.90;;;-141.84;76.87;18830.31;5032568;28;20225;-60
2023/02/06 01:38:40;;;;;;;11.97;8.07;;;-2.20;99.90;;;-141.84;77.12;18791.69;5032690;28;20236;-61
2023/02/06 01:41:10;;;;;;;11.43;8.10;;;-2.30;99.90;;;-141.84;77.58;18824.22;5032567;28;20587;-60
2023/02/06 01:43:44;;;;;;;10.30;7.77;;;-2.30;99.90;;;-141.84;78.03;18820.16;5032719;28;20230;-60
2023/02/06 01:46:12;;;;;;;12.23;8.83;;;-2.40;99.90;;;-141.84;77.54;18814.03;5032323;28;20233;-61
2023/02/06 01:48:46;;;;;;;14.40;9.77;;;-2.30;99.90;;;-141.84;76.96;18828.28;5032914;28;20595;-59
2023/02/06 01:51:21;;;;;;;13.03;9.50;;;-2.30;99.90;;;-141.84;77.13;18836.41;5032310;28;20213;-61
2023/02/06 01:53:54;;;;;;;14.20;9.50;;;-2.40;99.90;;;-141.84;77.74;18826.25;5032215;28;20231;-60
2023/02/06 01:56:25;;;;;;;15.33;10.07;;;-2.50;99.90;;;-141.84;78.04;18797.78;5032035;28;20236;-62
2023/02/06 01:58:59;;;;;;;12.43;9.43;;;-2.60;99.90;;;-141.84;77.76;18814.03;5032378;28;20224;-61
2023/02/06 02:01:27;;;;;;;15.03;9.43;;;-2.60;99.90;;;-141.84;77.05;18797.78;5032089;28;20225;-61
2023/02/06 02:04:04;;;;;;;13.47;8.80;;;-2.60;99.90;;;-141.84;77.47;18781.53;5032335;28;20216;-60
2023/02/06 02:06:34;;;;;;;12.70;8.50;;;-2.60;99.90;;;-141.84;77.46;18816.06;5033101;28;20186;-60
2023/02/06 02:09:06;;;;;;;11.80;8.80;;;-2.60;99.90;;;-141.84;77.46;18783.56;5032376;28;20233;-61
2023/02/06 02:11:40;;;;;;;11.50;8.93;;;-2.60;99.90;;;-141.84;77.65;18791.69;5031789;28;20993;-60
2023/02/06 02:14:15;;;;;;;13.57;8.63;;;-2.60;99.90;;;-141.84;77.56;18826.25;5032045;28;20231;-61
2023/02/06 02:17:00;;;;;;;13.90;9.50;;;-2.60;99.90;;;-141.84;77.69;18801.84;5031947;28;20684;-61
2023/02/06 02:20:27;;;;;;;11.50;8.73;;;-2.60;99.90;;;-141.84;77.97;18783.56;5032250;28;20228;-61
2023/02/06 02:23:21;;;;;;;12.50;9.00;;;-2.70;99.90;;;-141.84;78.28;18830.31;5031760;28;20236;-61
2023/02/06 02:26:44;;;;;;;11.83;9.30;;;-2.70;99.90;;;-141.84;78.52;18783.56;5031729;28;20643;-62
2023/02/06 02:30:00;;;;;;;12.17;9.03;;;-2.70;99.90;;;-141.84;78.40;18785.59;5031653;28;20236;-63
2023/02/06 02:33:10;;;;;;;12.23;8.53;;;-2.70;99.90;;;-141.84;78.62;18822.19;5031120;28;20248;-62
2023/02/06 02:35:53;;;;;;;13.83;10.80;;;-2.80;99.90;;;-141.84;78.71;18805.91;5017398;28;20283;-60
2023/02/06 02:38:40;;;;;;;14.00;10.37;;;-2.80;99.90;;;-141.84;79.10;18795.75;5031549;28;20332;-62
2023/02/06 02:41:17;;;;;;;12.00;10.30;;;-2.70;99.90;;;-141.84;79.39;18775.44;5031608;28;20244;-62
2023/02/06 02:43:54;;;;;;;14.83;11.83;;;-2.80;99.90;;;-141.84;79.90;18807.94;5031611;28;20233;-61
2023/02/06 02:46:31;;;;;;;13.67;10.77;;;-2.80;99.90;;;-141.84;80.46;18757.16;5031070;28;20245;-61
2023/02/06 02:49:07;;;;;;;13.03;10.17;;;-2.90;99.90;;;-141.84;80.77;18779.50;5031393;28;20554;-61
2023/02/06 02:51:39;;;;;;;14.97;11.43;;;-3.00;99.90;;;-141.84;80.32;18775.44;5031938;28;20529;-61
2023/02/06 02:54:08;;;;;;;14.43;11.77;;;-2.80;99.90;;;-141.84;80.13;18777.47;5031315;28;20233;-61
2023/02/06 02:56:36;;;;;;;13.40;9.87;;;-2.80;99.90;;;-141.84;80.05;18763.25;5031153;28;20230;-62
2023/02/06 02:59:11;;;;;;;14.30;9.80;;;-2.80;99.90;;;-141.84;80.18;18781.53;5031247;28;20231;-61
2023/02/06 03:01:47;;;;;;;12.93;9.70;;;-2.90;99.90;;;-141.84;80.18;18769.34;5031489;28;20290;-61
2023/02/06 03:04:24;;;;;;;12.97;9.10;;;-2.80;99.90;;;-141.84;79.93;18797.78;5031279;28;20236;-62
2023/02/06 03:07:22;;;;;;;10.87;8.73;;;-2.80;99.90;;;-141.84;79.79;18761.22;5031199;28;20192;-62
2023/02/06 03:10:03;;;;;;;13.73;9.77;;;-2.80;99.90;;;-141.84;79.95;18777.47;5030764;28;20209;-60
2023/02/06 03:12:43;;;;;;;13.30;10.63;;;-2.80;99.90;;;-141.84;80.23;18781.53;5031217;28;20209;-60
2023/02/06 03:15:24;;;;;;;15.30;11.97;;;-2.80;99.90;;;-141.84;80.02;18767.31;5030424;28;20248;-62
2023/02/06 03:18:01;;;;;;;15.77;12.57;;;-2.80;99.90;;;-141.84;79.73;18783.56;5030678;28;20247;-61
2023/02/06 03:20:32;;;;;;;14.37;12.23;;;-2.70;99.90;;;-141.84;79.58;18824.22;5031072;28;20236;-61
2023/02/06 03:23:05;;;;;;;14.37;11.60;;;-2.70;99.90;;;-141.84;79.45;18775.44;5030952;28;20228;-62
2023/02/06 03:25:38;;;;;;;13.00;10.87;;;-2.60;99.90;;;-141.84;79.45;18801.84;5030862;28;20229;-62
2023/02/06 03:28:17;;;;;;;12.20;9.80;;;-2.70;99.90;;;-141.84;79.95;18779.50;5030765;28;20640;-61
2023/02/06 03:30:52;;;;;;;13.27;9.93;;;-2.60;99.90;;;-141.84;79.80;18783.56;5031414;28;20190;-60
2023/02/06 03:33:27;;;;;;;13.13;10.23;;;-2.50;99.90;;;-141.84;79.50;18787.63;5030917;28;20220;-60
2023/02/06 03:35:57;;;;;;;13.37;10.17;;;-2.50;99.90;;;-141.84;79.01;18814.03;5030687;28;20228;-61
2023/02/06 03:38:28;;;;;;;12.73;9.97;;;-2.40;99.90;;;-141.84;78.77;18781.53;5030417;28;20608;-61
2023/02/06 03:41:00;;;;;;;13.43;9.97;;;-2.30;99.90;;;-141.84;78.82;18812.00;5030347;28;20229;-60
2023/02/06 03:43:30;;;;;;;12.40;9.53;;;-2.20;99.90;;;-141.84;78.36;18795.75;5029529;28;20321;-64
2023/02/06 03:46:05;;;;;;;15.40;10.27;;;-2.10;99.90;;;-141.84;78.24;18820.16;5030495;28;20196;-61
2023/02/06 03:48:39;;;;;;;13.23;10.20;;;-2.00;99.90;;;-141.84;77.58;18789.66;5030784;28;20530;-60
2023/02/06 03:51:14;;;;;;;12.90;10.40;;;-1.90;99.90;;;-141.84;77.46;18822.19;5030420;28;20226;-61
2023/02/06 03:53:46;;;;;;;11.37;9.27;;;-1.80;99.90;;;-141.84;76.93;18840.47;5030100;28;20287;-62
2023/02/06 03:56:26;;;;;;;14.03;10.20;;;-1.80;99.90;;;-141.84;77.09;18807.94;5030500;28;20229;-61
2023/02/06 03:58:54;;;;;;;13.17;9.93;;;-1.70;99.90;;;-141.84;77.62;18803.88;5030414;28;20229;-62
2023/02/06 04:01:24;;;;;;;12.83;10.03;;;-1.70;99.90;;;-141.84;77.21;18809.97;5030545;28;20238;-61
2023/02/06 04:03:52;;;;;;;11.53;9.20;;;-1.70;99.90;;;-141.84;77.11;18799.81;5029782;28;20240;-61
2023/02/06 04:06:21;;;;;;;14.20;9.63;;;-1.60;99.90;;;-141.84;76.63;18834.38;5030007;28;20209;-61
2023/02/06 04:08:50;;;;;;;11.97;9.67;;;-1.50;99.90;;;-141.84;76.21;18826.25;5047545;28;20225;-61
2023/02/06 04:11:18;;;;;;;12.47;10.40;;;-1.50;99.90;;;-141.84;76.32;18818.09;5049367;28;20228;-61
2023/02/06 04:13:46;;;;;;;13.93;10.40;;;-1.50;99.90;;;-141.84;76.76;18830.31;5049840;28;20231;-61
2023/02/06 04:16:15;;;;;;;13.90;9.73;;;-1.50;99.90;;;-141.84;76.40;18858.75;5049747;28;20245;-59
2023/02/06 04:18:43;;;;;;;13.33;9.53;;;-1.40;99.90;;;-141.84;76.07;18862.81;5050471;28;20207;-60
2023/02/06 04:21:11;;;;;;;13.77;9.57;;;-1.40;99.90;;;-141.84;76.13;18805.91;5049962;28;20232;-60
2023/02/06 04:23:39;;;;;;;15.10;10.23;;;-1.40;99.90;;;-141.84;76.25;18816.06;5047146;28;20230;-62
2023/02/06 04:26:09;;;;;;;16.00;10.63;;;-1.30;99.90;;;-141.84;76.07;18828.28;5030015;28;20237;-60
2023/02/06 04:28:37;;;;;;;13.50;10.13;;;-1.30;99.90;;;-141.84;75.64;18842.50;5030129;28;20226;-61
2023/02/06 04:31:05;;;;;;;13.10;10.03;;;-1.20;99.90;;;-141.84;75.54;18838.44;5030214;28;20207;-59
2023/02/06 04:33:33;;;;;;;15.17;10.50;;;-1.20;99.90;;;-141.84;75.29;18842.50;5030205;28;20261;-61
2023/02/06 04:36:01;;;;;;;16.03;11.53;;;-1.10;99.90;;;-141.84;75.94;18834.38;5030125;28;20319;-60
2023/02/06 04:38:29;;;;;;;15.60;10.17;;;-1.10;99.90;;;-141.84;76.15;18854.69;5029833;28;20243;-61
2023/02/06 04:41:03;;;;;;;14.73;10.47;;;-1.10;99.90;;;-141.84;76.28;18842.50;5030058;28;20233;-61
2023/02/06 04:43:33;;;;;;;13.27;10.57;;;-1.10;99.90;;;-141.84;76.03;18828.28;5029983;28;20224;-61
2023/02/06 04:46:01;;;;;;;15.27;10.93;;;-1.00;99.90;;;-141.84;76.17;18848.59;5029879;28;20194;-60
2023/02/06 04:48:30;;;;;;;13.10;10.53;;;-1.10;99.90;;;-141.84;76.40;18854.69;5030119;28;20618;-62
2023/02/06 04:50:58;;;;;;;15.37;10.70;;;-1.10;99.90;;;-141.84;76.67;18838.44;5029838;28;20239;-61
2023/02/06 04:53:26;;;;;;;14.93;11.80;;;-1.10;99.90;;;-141.84;76.48;18838.44;5029841;28;20226;-62
2023/02/06 04:56:00;;;;;;;15.17;11.30;;;-1.00;99.90;;;-141.84;76.39;18838.44;5031450;28;20268;-61
2023/02/06 04:58:29;;;;;;;15.33;12.30;;;-0.90;99.90;;;-141.84;76.26;18850.63;5033841;28;20240;-61
2023/02/06 05:00:58;;;;;;;13.90;11.63;;;-0.90;99.90;;;-141.84;75.90;18858.75;5032856;28;20209;-61
2023/02/06 05:03:28;;;;;;;15.80;11.47;;;-0.90;99.90;;;-141.84;76.37;18830.31;5034085;28;20200;-61
2023/02/06 05:06:00;;;;;;;15.23;11.07;;;-0.90;99.90;;;-141.84;76.76;18848.59;5033234;28;20226;-60
2023/02/06 05:08:28;;;;;;;14.43;11.10;;;-0.80;99.90;;;-141.84;76.93;18816.06;5033448;28;20551;-63
2023/02/06 05:10:56;;;;;;;12.43;11.07;;;-0.80;99.90;;;-141.84;77.10;18850.63;5033407;28;20233;-61
2023/02/06 05:13:25;;;;;;;15.23;11.70;;;-0.80;99.90;;;-141.84;77.31;18844.53;5035311;28;20255;-62
2023/02/06 05:15:53;;;;;;;14.87;11.20;;;-0.90;99.90;;;-141.84;77.42;18816.06;5037629;28;20235;-61
2023/02/06 05:18:23;;;;;;;16.97;11.63;;;-0.90;99.90;;;-141.84;77.46;18834.38;5034324;28;20870;-61
2023/02/06 05:20:51;;;;;;;13.03;11.60;;;-0.90;99.90;;;-141.84;77.39;18848.59;5032042;28;20241;-61
2023/02/06 05:23:19;;;;;;;14.83;11.70;;;-0.80;99.90;;;-141.84;77.46;18818.09;5032083;28;20744;-61
2023/02/06 05:25:48;;;;;;;15.37;12.40;;;-0.80;99.90;;;-141.84;77.93;18822.19;5032007;28;20234;-60
2023/02/06 05:28:16;;;;;;;17.03;12.13;;;-0.80;99.90;;;-141.84;77.56;18881.09;5032431;28;20230;-63
2023/02/06 05:30:44;;;;;;;16.50;12.77;;;-0.80;99.90;;;-141.84;76.80;18824.22;5032568;28;20202;-60
2023/02/06 05:33:13;;;;;;;13.43;11.43;;;-0.80;99.90;;;-141.84;76.46;18848.59;5032052;28;20222;-61
2023/02/06 05:35:42;;;;;;;16.70;11.93;;;-0.70;99.90;;;-141.84;76.65;18830.31;5031715;28;20225;-61
2023/02/06 05:38:11;;;;;;;15.07;12.77;;;-0.70;99.90;;;-141.84;77.51;18852.66;5032069;28;20254;-60
2023/02/06 05:40:39;;;;;;;15.00;11.73;;;-0.70;99.90;;;-141.84;77.64;18860.78;5031699;28;20230;-61
2023/02/06 05:43:07;;;;;;;14.30;12.03;;;-0.60;99.90;;;-141.84;77.80;18862.81;5031347;28;20201;-61
2023/02/06 05:45:36;;;;;;;15.93;12.40;;;-0.60;99.90;;;-141.84;78.16;18850.63;5031520;28;20208;-60
2023/02/06 05:48:05;;;;;;;16.80;12.80;;;-0.60;99.90;;;-141.84;78.22;18832.34;5031420;28;20239;-61
2023/02/06 05:50:33;;;;;;;15.67;12.53;;;-0.60;99.90;;;-141.84;78.40;18818.09;5031446;28;20720;-61
2023/02/06 05:53:03;;;;;;;16.67;12.87;;;-0.50;99.90;;;-141.84;78.10;18828.28;5031626;28;20235;-61
2023/02/06 05:55:31;;;;;;;16.47;12.67;;;-0.50;99.90;;;-141.84;78.30;18842.50;5031099;28;20237;-61
2023/02/06 05:57:59;;;;;;;16.30;12.83;;;-0.50;99.90;;;-141.84;78.40;18838.44;5031725;28;20206;-61
2023/02/06 06:00:27;;;;;;;17.00;12.80;;;-0.50;99.90;;;-141.84;78.68;18846.56;5031770;28;20210;-61
2023/02/06 06:02:55;;;;;;;17.70;13.57;;;-0.40;99.90;;;-141.84;78.64;18850.63;5030988;28;20237;-61
2023/02/06 06:05:24;;;;;;;20.87;14.70;;;-0.40;99.90;;;-141.84;78.90;18840.47;5031204;28;20227;-60
2023/02/06 06:07:52;;;;;;;18.93;14.07;;;-0.40;99.90;;;-141.84;78.87;18850.63;5030478;28;20233;-62
2023/02/06 06:10:22;;;;;;;18.23;14.07;;;-0.30;99.90;;;-141.84;79.12;18846.56;5031026;28;20232;-59
2023/02/06 06:12:50;;;;;;;19.03;14.33;;;-0.30;99.90;;;-141.84;79.29;18877.03;5030859;28;20611;-55
2023/02/06 06:15:18;;;;;;;17.30;13.73;;;-0.20;99.90;;;-141.84;79.52;18812.00;5031081;28;20236;-57
2023/02/06 06:17:47;;;;;;;22.60;15.40;;;-0.30;99.90;;;-141.84;79.57;18879.06;5030878;28;20228;-57
2023/02/06 06:20:15;;;;;;;19.97;14.27;;;-0.30;99.90;;;-141.84;79.45;18838.44;5030742;28;20259;-56
2023/02/06 06:22:43;;;;;;;20.53;14.80;;;-0.20;99.90;;;-141.84;79.54;18852.66;5030678;28;20611;-59
2023/02/06 06:25:11;;;;;;;20.67;15.00;;;-0.20;99.90;;;-141.84;79.81;18872.97;5030756;28;20258;-57
2023/02/06 06:27:41;;;;;;;19.43;15.17;;;-0.10;99.90;;;-141.84;80.15;18860.78;5031074;28;20717;-56
2023/02/06 06:30:11;;;;;;;18.40;14.77;;;-0.10;99.90;;;-141.84;80.76;18860.78;5030041;28;20234;-55
2023/02/06 06:32:39;;;;;;;20.53;15.73;;;0.00;99.90;;;-141.84;81.06;18862.81;5027509;28;20280;-56
2023/02/06 06:35:08;;;;;;;19.93;15.10;;;0.00;99.90;;;-141.84;81.34;18832.34;5034918;28;20262;-59
2023/02/06 06:37:36;;;;;;;19.40;14.63;;;-0.10;99.90;;;-141.84;81.68;18846.56;5049620;28;20778;-55
2023/02/06 06:40:05;;;;;;;19.10;15.27;;;-0.10;99.90;;;-141.84;82.17;18824.22;5049220;28;20205;-57
2023/02/06 06:42:33;;;;;;;22.10;15.77;;;-0.10;99.90;;;-141.84;82.30;18834.38;5050685;28;20665;-55
2023/02/06 06:45:03;;;;;;;20.03;15.23;;;0.00;99.90;;;-141.84;82.26;18850.63;5049944;28;20558;-58
2023/02/06 06:47:31;;;;;;;20.40;15.47;;;-0.10;99.90;;;-141.84;82.30;18832.34;5050189;28;20228;-55
2023/02/06 06:49:59;;;;;;;21.47;16.10;;;-0.10;99.90;;;-141.84;82.63;18820.16;5049971;28;20228;-57
2023/02/06 06:52:27;;;;;;;19.70;15.17;;;-0.10;99.90;;;-141.84;82.87;18856.72;5050440;28;20224;-58
2023/02/06 06:54:55;;;;;;;22.53;16.20;;;-0.10;99.90;;;-141.84;83.27;18822.19;5036937;28;20246;-56
2023/02/06 06:57:24;;;;;;;20.73;14.90;;;-0.10;99.90;;;-141.84;83.06;18824.22;5030353;28;20256;-58
2023/02/06 06:59:52;;;;;;;22.30;16.20;;;-0.10;99.90;;;-141.84;83.38;18846.56;5030045;28;20638;-57
2023/02/06 07:02:22;;;;;;;20.27;16.23;;;-0.10;99.90;;;-141.84;83.42;18838.44;5029916;28;20656;-58
2023/02/06 07:04:50;;;;;;;21.20;16.53;;;0.00;99.90;;;-141.84;83.47;18818.09;5029986;28;20229;-60
2023/02/06 07:07:18;;;;;;;22.27;16.17;;;0.00;99.90;;;-141.84;83.41;18826.25;5031423;28;21975;-60
2023/02/06 07:09:46;;;;;;;20.67;15.53;;;0.00;99.90;;;-141.84;83.31;18832.34;5043507;28;20684;-57
2023/02/06 07:12:14;;;;;;;19.97;15.67;;;0.10;99.90;;;-141.84;83.13;18830.31;5029127;28;20229;-59
2023/02/06 07:14:43;;;;;;;22.03;16.47;;;0.10;99.90;;;-141.84;83.43;18805.91;5029209;28;20229;-57
2023/02/06 07:17:11;;;;;;;21.27;14.77;;;0.10;99.90;;;-141.84;83.80;18785.59;5029608;28;20299;-60
2023/02/06 07:19:40;;;;;;;20.37;15.90;;;0.10;99.90;;;-141.84;83.72;18789.66;5029655;28;20234;-57
2023/02/06 07:22:08;;;;;;;21.87;16.20;;;0.20;99.90;;;-141.84;83.30;18820.16;5029595;28;20241;-58
2023/02/06 07:24:36;;;;;;;19.47;16.17;;;0.20;99.90;;;-141.84;83.55;18793.72;5029975;28;20669;-58
2023/02/06 07:27:04;;;;;;;21.30;16.03;;;0.20;99.90;;;-141.84;83.50;18812.00;5028843;28;20755;-57
2023/02/06 07:29:33;;;;;;;23.20;16.77;;;0.20;99.90;;;-141.84;83.62;18834.38;5029588;28;20226;-58
2023/02/06 07:32:01;;;;;;;23.37;16.20;;;0.20;99.90;;;-141.84;83.55;18828.28;5029185;28;20230;-57
2023/02/06 07:34:29;;;;;;;22.33;16.70;;;0.30;99.90;;;-141.84;83.63;18816.06;5029723;28;20647;-57
2023/02/06 07:36:59;;;;;;;22.60;17.43;;;0.30;99.90;;;-141.84;83.41;18818.09;5029132;28;20678;-55
2023/02/06 07:39:28;;;;;;;22.17;17.10;;;0.40;99.90;;;-141.84;83.18;18807.94;5029858;28;20198;-56
2023/02/06 07:41:56;;;;;;;23.80;16.80;;;0.30;99.90;;;-141.84;83.10;18814.03;5029307;28;20237;-55
2023/02/06 07:44:24;;;;;;;21.57;16.53;;;0.30;99.90;;;-141.84;82.92;18822.19;5029182;28;20229;-57
2023/02/06 07:46:52;;;;;;;22.17;16.60;;;0.40;99.90;;;-141.84;82.53;18852.66;5029306;28;20226;-58
2023/02/06 07:49:20;;;;;;;22.37;16.90;;;0.40;99.90;;;-141.84;82.63;18803.88;5028980;28;20753;-54
2023/02/06 07:51:48;;;;;;;22.03;16.83;;;0.40;99.90;;;-141.84;82.75;18836.41;5029296;28;20202;-56
2023/02/06 07:54:18;;;;;;;22.67;17.40;;;0.50;99.90;;;-141.84;82.47;18854.69;5029394;28;20665;-55
2023/02/06 07:56:47;;;;;;;19.10;15.13;;;0.60;99.90;;;-141.84;82.49;18785.59;5028810;28;20320;-60
2023/02/06 07:59:16;;;;;;;22.57;17.37;;;0.50;99.90;;;-141.84;82.45;18828.28;5028995;28;20226;-54
2023/02/06 08:01:44;;;;;;;21.20;16.67;;;0.60;99.90;;;-141.84;82.31;18834.38;5029236;28;20230;-55
2023/02/06 08:04:13;;;;;;;24.17;17.70;;;0.60;99.90;;;-141.84;82.69;18830.31;5029258;28;20691;-58
2023/02/06 08:06:42;;;;;;;23.53;17.63;;;0.60;99.90;;;-141.84;82.99;18848.59;5029572;28;20202;-56
2023/02/06 08:09:15;;;;;;;25.60;18.27;;;0.60;99.90;;;-141.84;83.31;18805.91;5028675;28;20237;-56
2023/02/06 08:11:45;;;;;;;25.80;18.00;;;0.60;99.90;;;-141.84;83.57;18812.00;5028784;28;20228;-58
2023/02/06 08:14:13;;;;;;;23.87;18.47;;;0.60;99.90;;;-141.84;83.61;18838.44;5028944;28;20240;-56
2023/02/06 08:16:41;;;;;;;28.93;19.93;;;0.60;99.90;;;-141.84;83.18;18834.38;5028843;28;20314;-56
2023/02/06 08:19:11;;;;;;;25.37;18.90;;;0.60;99.90;;;-141.84;83.21;18824.22;5028855;28;20235;-57
2023/02/06 08:21:39;;;;;;;30.93;19.47;;;0.60;99.90;;;-141.84;83.30;18826.25;5029404;28;20220;-58
2023/02/06 08:24:10;;;;;;;27.30;19.37;;;0.70;99.90;;;-141.84;83.58;18809.97;5028966;28;20230;-55
2023/02/06 08:26:39;;;;;;;28.93;20.83;;;0.70;99.90;;;-141.84;83.25;18787.63;5028908;28;20578;-56
2023/02/06 08:29:09;;;;;;;32.07;22.03;;;0.80;99.90;;;-141.84;83.15;18842.50;5028874;28;20590;-56
2023/02/06 08:31:40;;;;;;;30.10;20.53;;;0.80;99.90;;;-141.84;83.20;18830.31;5032125;28;20233;-52
2023/02/06 08:34:13;;;;;;;27.47;19.40;;;0.80;99.90;;;-141.84;83.26;18822.19;5032880;28;20691;-56
2023/02/06 08:36:42;;;;;;;25.83;19.30;;;0.80;99.90;;;-141.84;83.50;18842.50;5033156;28;20206;-56
2023/02/06 08:39:13;;;;;;;29.37;20.77;;;0.90;99.90;;;-141.84;83.13;18814.03;5032703;28;20231;-58
2023/02/06 08:41:43;;;;;;;30.60;20.60;;;1.00;99.90;;;-141.84;83.17;18809.97;5032672;28;20280;-57
2023/02/06 08:44:16;;;;;;;27.10;18.90;;;1.10;99.90;;;-141.84;83.21;18883.13;5032590;28;20705;-57
2023/02/06 08:46:46;;;;;;;26.93;18.43;;;1.20;99.90;;;-141.84;83.13;18820.16;5032626;28;20308;-56
2023/02/06 08:49:17;;;;;;;27.87;18.13;;;1.20;99.90;;;-141.84;82.61;18838.44;5032352;28;20291;-58
2023/02/06 08:51:46;;;;;;;26.37;18.07;;;1.30;99.90;;;-141.84;82.26;18850.63;5033151;28;20179;-55
2023/02/06 08:54:17;;;;;;;27.57;18.27;;;1.40;99.90;;;-141.84;81.79;18866.88;5035363;28;20693;-55
2023/02/06 08:56:46;;;;;;;25.90;17.20;;;1.40;99.90;;;-141.84;81.26;18854.69;5041056;28;20246;-55
2023/02/06 08:59:18;;;;;;;30.90;18.43;;;1.60;99.90;;;-141.84;81.57;18883.13;5031811;28;20649;-57
2023/02/06 09:01:48;;;;;;;30.73;18.63;;;1.50;99.90;;;-141.84;81.77;18870.94;5032560;28;20230;-56
2023/02/06 09:04:18;;;;;;;28.93;17.37;;;1.60;99.90;;;-141.84;82.01;18846.56;5032295;28;20234;-56
2023/02/06 09:06:47;;;;;;;33.57;19.10;;;1.50;99.90;;;-141.84;81.74;18879.06;5032914;28;20194;-57
2023/02/06 09:09:16;;;;;;;28.23;18.03;;;1.60;99.90;;;-141.84;81.65;18856.72;5031323;28;20236;-56
2023/02/06 09:11:44;;;;;;;35.33;19.27;;;1.60;99.90;;;-141.84;81.51;18854.69;5031849;28;20652;-57
2023/02/06 09:14:17;;;;;;;30.23;18.50;;;1.60;99.90;;;-141.84;81.95;18899.38;5032008;28;20231;-56
2023/02/06 09:16:45;;;;;;;30.70;18.50;;;1.60;99.90;;;-141.84;82.19;18862.81;5031745;28;20252;-55
2023/02/06 09:19:14;;;;;;;33.63;18.20;;;1.60;99.90;;;-141.84;82.33;18828.28;5038585;28;20240;-57
2023/02/06 09:21:42;;;;;;;34.07;19.57;;;1.60;99.90;;;-141.84;82.27;18805.91;5052605;28;20205;-56
2023/02/06 09:24:10;;;;;;;31.50;19.33;;;1.70;99.90;;;-141.84;82.35;18870.94;5044804;28;20248;-55
2023/02/06 09:26:41;;;;;;;37.10;18.77;;;1.60;99.90;;;-141.84;81.98;18852.66;5033917;28;20582;-60
2023/02/06 09:29:30;;;;;;;35.03;17.83;;;1.70;99.90;;;-141.84;81.09;18854.69;5050732;28;20216;-63
2023/02/06 09:31:59;;;;;;;32.93;18.13;;;1.80;99.90;;;-141.84;80.85;18879.06;5051423;28;20244;-62
2023/02/06 09:34:28;;;;;;;33.23;19.07;;;1.80;99.90;;;-141.84;80.79;18885.16;5051919;28;20235;-61
2023/02/06 09:36:56;;;;;;;30.20;17.60;;;1.90;99.90;;;-141.84;80.71;18879.06;5051927;28;20708;-62
2023/02/06 09:39:25;;;;;;;29.53;17.10;;;1.90;99.90;;;-141.84;80.42;18877.03;5051708;28;20257;-64
2023/02/06 09:41:59;;;;;;;26.03;15.90;;;2.00;99.90;;;-141.84;79.47;18905.47;5050926;28;20241;-62
2023/02/06 09:44:34;;;;;;;29.50;15.33;;;2.10;99.90;;;-141.84;78.28;18897.34;5052371;28;20578;-60
2023/02/06 09:47:17;;;;;;;26.77;14.90;;;2.20;99.90;;;-141.84;78.92;18905.47;5051779;28;20220;-61
2023/02/06 09:49:49;;;;;;;27.10;16.13;;;2.30;99.90;;;-141.84;77.42;18895.31;5051615;28;20279;-63
2023/02/06 09:52:44;;;;;;;24.60;15.57;;;2.30;99.90;;;-141.84;76.82;18962.38;5051867;28;20662;-62
2023/02/06 09:55:30;;;;;;;25.37;14.73;;;2.40;99.90;;;-141.84;75.83;18923.78;5051615;28;20648;-61
2023/02/06 09:58:14;;;;;;;27.10;15.37;;;2.50;99.90;;;-141.84;76.56;18921.75;5051516;28;20290;-62
2023/02/06 10:00:53;;;;;;;25.20;15.00;;;2.50;99.90;;;-141.84;76.17;18950.19;5051541;28;20225;-61
2023/02/06 10:03:43;;;;;;;23.87;14.60;;;2.60;99.90;;;-141.84;75.60;18950.19;5051163;28;20872;-60
2023/02/06 10:06:19;;;;;;;27.20;15.27;;;2.60;99.90;;;-141.84;75.55;18952.22;5051458;28;20241;-61
2023/02/06 10:08:58;;;;;;;24.80;14.90;;;2.50;99.90;;;-141.84;76.28;18946.13;5051837;28;20188;-61
2023/02/06 10:11:41;;;;;;;23.83;14.27;;;2.50;99.90;;;-141.84;76.26;18948.16;5051493;28;20227;-61
2023/02/06 10:14:21;;;;;;;24.43;13.33;;;2.50;99.90;;;-141.84;76.56;18956.28;5051162;28;20228;-60
2023/02/06 10:16:59;;;;;;;24.57;14.40;;;2.50;99.90;;;-141.84;76.60;18893.28;5050964;28;20290;-60